Time;durP1;ratioP1;P1;durP2;ratioP2;P2;SDS_P1;SDS_P2;PMS_P1;PMS_P2;Temp;Humidity;BMP_temperature;BMP_pressure;BME280_temperature;BME280_humidity;BME280_pressure;Samples;Min_cycle;Max_cycle;Signal;HPM_P1;HPM_P2
2022/03/28 00:00:11;;;;;;;50.70;42.97;;;14.20;83.60;;;;;;5042728;28;20057;-93
2022/03/28 00:03:07;;;;;;;52.45;44.00;;;14.30;83.60;;;;;;5046264;28;20064;-92
2022/03/28 00:05:52;;;;;;;53.78;45.63;;;14.20;83.90;;;;;;5034596;28;20033;-92
2022/03/28 00:08:43;;;;;;;49.05;41.58;;;14.20;84.00;;;;;;5044748;28;20458;-92
2022/03/28 00:11:10;;;;;;;50.35;42.67;;;14.20;84.30;;;;;;5036064;28;20037;-93
2022/03/28 00:14:06;;;;;;;52.17;40.78;;;14.10;84.50;;;;;;5038933;28;20132;-92
2022/03/28 00:16:41;;;;;;;54.85;44.00;;;14.10;84.90;;;;;;5022819;28;20112;-91
2022/03/28 00:19:08;;;;;;;62.55;48.88;;;14.10;85.50;;;;;;5017225;28;20088;-93
2022/03/28 00:21:41;;;;;;;75.15;55.53;;;14.10;85.80;;;;;;5032629;28;20041;-93
2022/03/28 00:24:16;;;;;;;83.15;59.40;;;14.10;86.50;;;;;;5014468;28;20038;-92
2022/03/28 00:26:44;;;;;;;96.88;67.55;;;14.00;87.20;;;;;;5028123;28;20038;-92
2022/03/28 00:29:19;;;;;;;92.65;63.05;;;14.00;87.80;;;;;;4999889;28;20338;-91
2022/03/28 00:31:48;;;;;;;88.18;62.30;;;13.80;88.80;;;;;;5031199;28;20041;-92
2022/03/28 00:34:15;;;;;;;88.45;65.93;;;13.80;88.90;;;;;;5076252;23;20058;-84
2022/03/28 00:36:41;;;;;;;91.40;65.45;;;13.80;89.10;;;;;;4976837;28;20046;-83
2022/03/28 00:39:07;;;;;;;94.97;66.78;;;13.80;89.40;;;;;;4994427;28;20047;-83
2022/03/28 00:41:33;;;;;;;94.43;66.90;;;13.80;89.60;;;;;;4994610;28;20042;-85
2022/03/28 00:43:59;;;;;;;110.65;77.50;;;13.80;89.70;;;;;;4976734;28;20045;-85
2022/03/28 00:46:26;;;;;;;99.43;71.50;;;13.70;89.90;;;;;;4976390;28;20101;-85
2022/03/28 00:48:53;;;;;;;103.95;72.43;;;13.70;90.10;;;;;;4976709;28;20038;-85
2022/03/28 00:51:20;;;;;;;105.55;73.07;;;13.70;90.30;;;;;;4994672;28;20090;-85
2022/03/28 00:53:46;;;;;;;110.57;75.68;;;13.60;90.30;;;;;;4994817;28;20050;-85
2022/03/28 00:56:13;;;;;;;115.93;78.18;;;13.70;90.20;;;;;;4976769;28;20098;-84
2022/03/28 00:58:39;;;;;;;119.65;81.78;;;13.80;90.00;;;;;;4977532;28;20133;-84
2022/03/28 01:01:11;;;;;;;118.82;78.97;;;13.70;90.00;;;;;;4994401;28;20121;-83
2022/03/28 01:03:38;;;;;;;107.35;73.03;;;13.70;89.50;;;;;;4993664;28;20034;-82
2022/03/28 05:58:44;;;;;;;125.10;67.18;;;9.40;95.10;;;;;;5154393;23;20057;-84
2022/03/28 06:01:10;;;;;;;114.88;69.00;;;9.40;95.40;;;;;;4980249;28;20141;-84
2022/03/28 06:03:37;;;;;;;86.30;56.05;;;9.40;95.20;;;;;;4997865;28;20113;-84
2022/03/28 06:06:04;;;;;;;112.88;62.03;;;9.50;95.40;;;;;;4997408;28;20031;-82
2022/03/28 06:08:30;;;;;;;85.32;56.95;;;9.50;94.70;;;;;;4994274;28;20038;-83
2022/03/28 06:10:56;;;;;;;103.80;60.45;;;9.50;94.60;;;;;;4985378;28;20034;-84
2022/03/28 06:13:22;;;;;;;100.28;59.58;;;9.50;94.20;;;;;;4978643;28;20109;-84
2022/03/28 06:15:48;;;;;;;81.25;56.38;;;9.40;94.50;;;;;;4978816;28;20523;-84
2022/03/28 06:18:13;;;;;;;84.40;58.15;;;9.50;94.60;;;;;;4977471;28;20117;-85
2022/03/28 06:20:39;;;;;;;85.50;54.78;;;9.50;94.60;;;;;;4991462;28;20042;-85
2022/03/28 06:23:05;;;;;;;79.07;55.38;;;9.50;94.50;;;;;;4973600;28;20035;-87
2022/03/28 06:25:31;;;;;;;87.63;59.25;;;9.70;94.30;;;;;;4984537;28;20038;-84
2022/03/28 06:27:56;;;;;;;99.93;61.17;;;9.70;93.80;;;;;;4996812;28;20034;-85
2022/03/28 06:30:22;;;;;;;99.35;63.83;;;9.60;93.90;;;;;;4995860;28;20034;-85
2022/03/28 06:32:48;;;;;;;95.05;60.97;;;9.70;94.10;;;;;;4996951;28;20022;-84
2022/03/28 06:35:13;;;;;;;105.57;64.72;;;9.60;94.20;;;;;;4997165;28;20105;-84
2022/03/28 06:37:39;;;;;;;92.15;60.25;;;9.60;94.20;;;;;;4996878;28;20495;-86
2022/03/28 06:40:05;;;;;;;95.88;61.30;;;9.60;94.40;;;;;;4989465;28;20042;-85
2022/03/28 06:42:32;;;;;;;126.55;63.60;;;9.60;94.30;;;;;;4996268;28;20026;-85
2022/03/28 06:44:58;;;;;;;97.15;63.83;;;9.50;94.20;;;;;;4997984;28;20038;-85
2022/03/28 06:47:25;;;;;;;102.60;60.92;;;9.40;94.90;;;;;;4995713;28;20062;-85
2022/03/28 06:49:50;;;;;;;88.03;57.28;;;9.50;94.60;;;;;;4992228;28;20045;-86
2022/03/28 06:52:16;;;;;;;93.28;59.05;;;9.50;94.50;;;;;;4959970;28;20378;-86
2022/03/28 06:54:42;;;;;;;83.63;56.38;;;9.50;94.20;;;;;;4959924;28;20033;-85
2022/03/28 06:57:08;;;;;;;79.75;56.15;;;9.60;94.20;;;;;;4977720;28;20179;-87
2022/03/28 06:59:33;;;;;;;84.40;53.90;;;9.60;94.10;;;;;;4977458;28;20043;-85
2022/03/28 07:01:59;;;;;;;79.72;55.15;;;9.60;94.10;;;;;;4959819;28;20475;-85
2022/03/28 07:04:25;;;;;;;82.38;54.63;;;9.70;94.00;;;;;;4977820;28;20055;-85
2022/03/28 07:06:51;;;;;;;78.93;53.08;;;9.80;93.90;;;;;;4978038;28;20502;-84
2022/03/28 07:09:18;;;;;;;90.65;53.47;;;9.90;93.60;;;;;;4977536;28;20395;-85
2022/03/28 07:11:45;;;;;;;93.07;54.65;;;10.00;93.50;;;;;;4959865;28;20114;-85
2022/03/28 07:14:11;;;;;;;82.97;52.13;;;10.00;93.40;;;;;;4960126;28;20035;-85
2022/03/28 07:16:37;;;;;;;69.40;48.63;;;10.10;93.00;;;;;;4984206;28;20050;-85
2022/03/28 07:19:04;;;;;;;86.53;57.83;;;10.10;92.80;;;;;;4976767;28;20039;-85
2022/03/28 07:21:29;;;;;;;83.97;55.65;;;10.20;92.80;;;;;;4959618;28;20117;-85
2022/03/28 07:23:55;;;;;;;86.32;57.00;;;10.10;93.00;;;;;;4959766;28;20066;-85
2022/03/28 07:26:21;;;;;;;96.50;57.65;;;10.10;93.00;;;;;;4960753;28;20034;-84
2022/03/28 07:28:47;;;;;;;81.05;55.22;;;10.00;93.30;;;;;;4996075;28;20073;-85
2022/03/28 07:31:13;;;;;;;76.82;54.58;;;10.00;93.50;;;;;;4995780;28;20505;-84
2022/03/28 07:33:39;;;;;;;86.30;54.13;;;10.10;93.10;;;;;;4973268;28;20043;-82
2022/03/28 07:36:06;;;;;;;74.07;51.33;;;10.20;93.20;;;;;;4994608;28;20514;-82
2022/03/28 07:38:32;;;;;;;82.40;55.05;;;10.30;93.00;;;;;;4995252;28;20034;-82
2022/03/28 07:40:58;;;;;;;82.70;55.30;;;10.40;92.70;;;;;;4995583;28;20041;-82
2022/03/28 07:43:24;;;;;;;75.82;52.78;;;10.50;92.60;;;;;;4995286;28;20114;-82
2022/03/28 07:45:52;;;;;;;66.90;49.88;;;10.50;92.50;;;;;;4989771;28;20561;-82
2022/03/28 07:48:18;;;;;;;66.63;49.85;;;10.60;92.20;;;;;;4974850;28;20105;-83
2022/03/28 07:50:45;;;;;;;64.55;48.92;;;10.80;91.70;;;;;;4992936;28;20047;-83
2022/03/28 07:53:12;;;;;;;69.30;49.67;;;10.80;91.60;;;;;;4977122;28;20121;-83
2022/03/28 07:55:39;;;;;;;61.45;45.67;;;11.00;91.40;;;;;;4988422;28;20034;-83
2022/03/28 07:58:06;;;;;;;72.43;51.47;;;11.10;91.10;;;;;;4965530;28;20042;-83
2022/03/28 08:00:33;;;;;;;66.55;49.42;;;11.20;90.80;;;;;;4972320;28;20038;-85
2022/03/28 08:03:00;;;;;;;62.55;47.30;;;11.30;90.60;;;;;;4995840;28;20509;-89
2022/03/28 08:05:27;;;;;;;65.75;48.72;;;11.40;90.50;;;;;;4976935;28;20046;-83
2022/03/28 08:07:54;;;;;;;64.68;49.90;;;11.40;90.10;;;;;;4993943;28;20030;-83
2022/03/28 08:10:21;;;;;;;69.93;52.58;;;11.50;90.30;;;;;;4995458;28;20049;-83
2022/03/28 08:12:48;;;;;;;71.05;51.72;;;11.50;90.10;;;;;;4990580;28;20390;-84
2022/03/28 08:15:16;;;;;;;66.43;47.22;;;11.50;90.00;;;;;;4978099;28;20810;-83
2022/03/28 08:17:42;;;;;;;68.05;51.90;;;11.60;90.30;;;;;;4975809;28;20376;-83
2022/03/28 08:20:10;;;;;;;57.10;45.47;;;11.80;89.90;;;;;;4971529;28;20085;-82
2022/03/28 08:22:44;;;;;;;70.75;50.85;;;11.90;89.80;;;;;;4970542;28;20046;-84
2022/03/28 08:25:10;;;;;;;72.57;54.47;;;12.00;88.40;;;;;;4976703;28;20149;-85
2022/03/28 08:27:35;;;;;;;59.28;46.58;;;12.00;88.30;;;;;;4964436;28;20042;-84
2022/03/28 08:30:03;;;;;;;66.55;50.08;;;12.20;88.40;;;;;;4961910;28;20133;-90
2022/03/28 08:32:31;;;;;;;69.05;54.10;;;12.30;87.50;;;;;;4975527;28;20042;-91
2022/03/28 08:34:57;;;;;;;63.28;48.67;;;12.30;87.70;;;;;;4976690;28;20074;-92
2022/03/28 08:37:24;;;;;;;56.42;44.17;;;12.40;87.30;;;;;;4983645;28;20077;-91
2022/03/28 08:39:54;;;;;;;53.75;43.53;;;12.60;87.10;;;;;;4960883;28;20030;-91
2022/03/28 08:42:21;;;;;;;;;;;12.80;86.60;;;;;;4977882;28;20030;-91
2022/03/28 08:44:47;;;;;;;59.30;43.05;;;13.10;84.90;;;;;;4978618;28;20416;-91
2022/03/28 08:47:17;;;;;;;61.60;49.58;;;13.30;84.40;;;;;;4990196;28;20034;-91
2022/03/28 08:49:42;;;;;;;61.22;48.53;;;13.40;83.80;;;;;;4997053;28;20443;-91
2022/03/28 08:52:08;;;;;;;67.03;55.40;;;13.60;83.70;;;;;;4996978;28;20104;-91
2022/03/28 08:54:34;;;;;;;70.45;55.10;;;13.80;82.70;;;;;;4996033;28;20065;-90
2022/03/28 08:57:01;;;;;;;68.43;54.75;;;14.10;82.50;;;;;;4978701;28;20037;-90
2022/03/28 08:59:27;;;;;;;65.95;52.47;;;14.20;81.30;;;;;;4995938;28;20039;-91
2022/03/28 09:01:53;;;;;;;72.53;58.08;;;14.40;81.10;;;;;;4996523;28;20118;-91
2022/03/28 09:04:18;;;;;;;82.50;64.40;;;14.50;79.90;;;;;;4996343;28;20105;-90
2022/03/28 09:06:45;;;;;;;79.55;63.15;;;14.60;80.10;;;;;;4978744;28;20545;-91
2022/03/28 09:09:24;;;;;;;70.57;55.80;;;14.60;79.70;;;;;;4978033;28;20121;-91
2022/03/28 09:12:06;;;;;;;77.05;60.55;;;14.70;79.70;;;;;;4979360;28;20057;-90
2022/03/28 09:14:35;;;;;;;73.57;58.63;;;14.90;79.70;;;;;;4996791;28;20482;-90
2022/03/28 09:17:10;;;;;;;83.95;67.90;;;15.00;79.20;;;;;;4975854;28;20034;-92
2022/03/28 09:19:55;;;;;;;75.82;59.60;;;15.10;78.40;;;;;;4996299;28;20108;-91
2022/03/28 09:22:28;;;;;;;71.45;57.70;;;15.20;77.50;;;;;;4994435;28;20034;-91
2022/03/28 09:25:00;;;;;;;90.32;71.65;;;15.30;77.40;;;;;;4986534;28;20121;-92
2022/03/28 09:27:28;;;;;;;93.65;66.68;;;15.40;76.80;;;;;;4988244;28;20069;-91
2022/03/28 09:30:03;;;;;;;95.47;70.43;;;15.50;77.70;;;;;;4980778;28;20502;-91
2022/03/28 09:32:37;;;;;;;97.18;71.28;;;15.50;76.70;;;;;;4984740;28;20123;-89
2022/03/28 09:35:08;;;;;;;97.35;71.38;;;15.50;76.70;;;;;;4992684;28;20035;-87
2022/03/28 09:37:58;;;;;;;93.05;67.47;;;15.60;76.70;;;;;;4975527;28;20113;-87
2022/03/28 09:40:37;;;;;;;92.15;65.80;;;15.70;76.40;;;;;;4974660;28;20097;-88
2022/03/28 09:43:05;;;;;;;88.60;66.85;;;15.90;76.00;;;;;;4969418;28;20026;-89
2022/03/28 09:45:37;;;;;;;95.25;67.82;;;15.80;75.90;;;;;;4971583;28;20039;-89
2022/03/28 09:48:07;;;;;;;93.38;67.68;;;16.00;75.70;;;;;;4991545;28;20431;-88
2022/03/28 09:50:43;;;;;;;;;;;16.00;75.20;;;;;;4966665;28;20046;-88
2022/03/28 09:53:14;;;;;;;113.68;78.15;;;16.10;74.90;;;;;;4994943;28;19905;-89
2022/03/28 09:55:51;;;;;;;97.97;67.22;;;16.30;73.90;;;;;;4994350;28;20486;-89
2022/03/28 09:58:35;;;;;;;85.63;60.80;;;16.30;73.10;;;;;;4988631;28;20038;-88
2022/03/28 10:01:04;;;;;;;89.35;64.68;;;16.50;73.20;;;;;;4972420;28;20049;-88
2022/03/28 10:03:33;;;;;;;81.70;55.95;;;16.60;72.50;;;;;;4975814;28;20027;-88
2022/03/28 10:06:04;;;;;;;85.93;60.13;;;16.80;72.30;;;;;;4974921;28;20045;-89
2022/03/28 10:08:30;;;;;;;81.85;57.85;;;17.00;71.40;;;;;;4981854;28;20042;-88
2022/03/28 10:10:58;;;;;;;83.28;57.90;;;17.10;70.30;;;;;;4975213;28;20038;-88
2022/03/28 10:13:24;;;;;;;78.85;56.78;;;17.20;68.60;;;;;;4988164;28;20031;-87
2022/03/28 10:15:51;;;;;;;69.78;50.15;;;17.20;69.10;;;;;;4984950;28;20053;-86
2022/03/28 10:18:17;;;;;;;68.72;48.58;;;17.30;69.00;;;;;;4972523;28;20482;-87
2022/03/28 10:20:46;;;;;;;72.00;51.22;;;17.60;68.90;;;;;;4976085;28;20058;-86
2022/03/28 10:23:15;;;;;;;69.65;53.67;;;17.80;66.60;;;;;;4993551;28;20423;-86
2022/03/28 10:25:42;;;;;;;69.93;50.92;;;17.50;67.20;;;;;;4979343;28;20065;-87
2022/03/28 10:28:09;;;;;;;58.88;44.90;;;17.60;66.50;;;;;;4964732;28;20035;-85
2022/03/28 10:30:35;;;;;;;63.90;48.10;;;17.80;67.20;;;;;;4986366;28;20109;-88
2022/03/28 10:33:19;;;;;;;61.75;47.08;;;17.90;66.30;;;;;;4980806;28;20081;-87
2022/03/28 10:36:07;;;;;;;65.25;50.05;;;18.20;65.40;;;;;;4993004;28;20046;-86
2022/03/28 10:38:33;;;;;;;54.55;41.20;;;18.40;65.70;;;;;;4978261;28;20030;-86
2022/03/28 10:40:59;;;;;;;61.60;46.25;;;18.60;65.90;;;;;;4995825;28;20041;-86
2022/03/28 10:43:31;;;;;;;57.05;45.85;;;18.80;63.90;;;;;;4996133;28;20026;-87
2022/03/28 10:46:03;;;;;;;59.25;46.20;;;19.00;63.40;;;;;;4993889;28;20034;-87
2022/03/28 10:48:37;;;;;;;58.63;44.13;;;19.10;61.90;;;;;;4996349;28;20386;-87
2022/03/28 10:51:10;;;;;;;53.05;42.95;;;19.10;62.20;;;;;;4978784;28;20034;-82
2022/03/28 10:53:58;;;;;;;58.47;43.40;;;19.20;62.40;;;;;;4977982;28;21609;-80
2022/03/28 10:56:32;;;;;;;49.47;41.53;;;19.40;60.90;;;;;;4995974;28;20106;-81
2022/03/28 10:59:06;;;;;;;47.42;39.33;;;19.50;61.10;;;;;;4995692;28;20046;-81
2022/03/28 11:01:43;;;;;;;46.65;39.53;;;19.70;60.40;;;;;;4995768;28;20030;-80
2022/03/28 11:04:12;;;;;;;48.58;40.75;;;19.80;59.60;;;;;;4995083;28;20495;-81
2022/03/28 11:06:49;;;;;;;46.30;39.72;;;19.80;59.10;;;;;;4988055;28;20042;-81
2022/03/28 11:09:32;;;;;;;43.25;34.80;;;20.00;58.30;;;;;;4995221;28;20050;-81
2022/03/28 11:12:04;;;;;;;40.78;35.45;;;19.90;59.40;;;;;;4976546;28;20038;-81
2022/03/28 11:14:53;;;;;;;40.15;34.55;;;20.00;58.10;;;;;;4987115;28;20386;-81
2022/03/28 11:17:18;;;;;;;42.90;33.83;;;20.10;57.90;;;;;;4976896;28;20046;-81
2022/03/28 11:19:57;;;;;;;35.28;30.77;;;20.10;57.20;;;;;;4993226;28;20035;-81
2022/03/28 11:22:50;;;;;;;36.92;32.63;;;20.20;57.60;;;;;;4992073;28;20495;-80
2022/03/28 11:25:46;;;;;;;38.08;33.83;;;20.30;57.30;;;;;;4973200;28;20046;-81
2022/03/28 11:28:15;;;;;;;43.50;36.83;;;20.40;56.10;;;;;;4974851;28;20038;-81
2022/03/28 11:30:44;;;;;;;51.30;40.33;;;20.40;56.60;;;;;;4986119;28;20479;-82
2022/03/28 11:33:11;;;;;;;42.53;36.80;;;20.10;56.60;;;;;;4970726;28;20042;-82
2022/03/28 11:35:38;;;;;;;44.03;38.35;;;19.90;56.70;;;;;;4978455;28;20178;-82
2022/03/28 11:38:05;;;;;;;43.45;36.50;;;19.80;57.20;;;;;;4973546;28;20073;-82
2022/03/28 11:40:41;;;;;;;52.67;40.67;;;19.90;57.80;;;;;;4977890;28;20030;-80
2022/03/28 11:43:09;;;;;;;50.05;41.05;;;19.90;56.70;;;;;;4993862;28;20181;-82
2022/03/28 11:45:36;;;;;;;46.65;38.60;;;19.80;57.30;;;;;;4975558;28;20038;-82
2022/03/28 11:48:03;;;;;;;43.47;36.83;;;19.60;58.00;;;;;;4976833;28;20042;-84
2022/03/28 11:50:30;;;;;;;48.97;40.90;;;20.10;57.70;;;;;;4995701;28;20030;-83
2022/03/28 11:52:57;;;;;;;48.67;42.97;;;20.20;55.70;;;;;;4977304;28;20145;-83
2022/03/28 11:55:25;;;;;;;49.90;42.67;;;20.40;54.60;;;;;;4994905;28;20030;-83
2022/03/28 12:00:39;;;;;;;59.35;50.17;;;20.90;54.10;;;;;;4988488;28;20037;-82
2022/03/28 12:03:08;;;;;;;56.60;49.97;;;20.80;53.20;;;;;;4976978;28;20165;-82
2022/03/28 12:05:37;;;;;;;54.83;45.78;;;20.80;52.90;;;;;;4994588;28;20046;-82
2022/03/28 12:08:08;;;;;;;59.40;48.67;;;20.90;53.70;;;;;;4993399;28;20379;-82
2022/03/28 12:10:35;;;;;;;54.85;47.25;;;20.80;52.70;;;;;;4977266;28;20041;-82
2022/03/28 12:13:05;;;;;;;60.25;50.97;;;20.30;53.70;;;;;;4976922;28;20049;-81
2022/03/28 12:15:34;;;;;;;58.50;47.53;;;20.30;54.80;;;;;;4993258;28;20030;-84
2022/03/28 12:18:02;;;;;;;54.40;46.87;;;20.40;54.50;;;;;;4975987;28;20288;-84
2022/03/28 12:20:33;;;;;;;60.90;49.38;;;20.60;53.80;;;;;;4995167;28;20555;-84
2022/03/28 12:23:01;;;;;;;52.55;44.53;;;20.20;54.30;;;;;;4977400;28;20442;-83
2022/03/28 12:25:44;;;;;;;52.97;44.70;;;20.30;55.00;;;;;;4995119;28;20042;-84
2022/03/28 12:28:13;;;;;;;58.60;47.28;;;20.60;54.80;;;;;;4984917;28;20572;-84
2022/03/28 12:30:49;;;;;;;57.40;45.42;;;20.40;53.80;;;;;;4992463;28;20731;-83
2022/03/28 12:33:18;;;;;;;53.78;45.35;;;20.30;54.00;;;;;;4988452;28;20128;-86
2022/03/28 12:35:52;;;;;;;56.20;46.20;;;20.40;54.00;;;;;;4996316;28;20030;-87
2022/03/28 12:38:27;;;;;;;57.42;43.40;;;20.70;53.70;;;;;;4996954;28;20066;-87
2022/03/28 12:40:55;;;;;;;51.22;41.65;;;21.00;53.40;;;;;;4978120;28;20037;-86
2022/03/28 12:43:25;;;;;;;54.47;44.35;;;21.30;53.10;;;;;;4979393;28;20085;-85
2022/03/28 12:46:01;;;;;;;49.90;39.92;;;21.20;52.30;;;;;;4990226;28;20062;-89
2022/03/28 12:48:44;;;;;;;63.47;42.22;;;21.20;52.50;;;;;;4987566;28;20058;-81
2022/03/28 12:51:12;;;;;;;48.30;41.13;;;21.10;51.80;;;;;;4992977;28;20042;-80
2022/03/28 12:54:00;;;;;;;45.70;38.95;;;21.20;52.70;;;;;;4986695;28;20101;-82
2022/03/28 12:56:27;;;;;;;46.85;39.03;;;21.40;51.10;;;;;;4975094;28;20042;-82
2022/03/28 12:58:59;;;;;;;48.17;39.35;;;21.40;51.40;;;;;;4986324;28;20045;-85
2022/03/28 13:01:28;;;;;;;50.35;39.22;;;21.40;51.10;;;;;;4973651;28;20038;-85
2022/03/28 13:04:17;;;;;;;42.13;37.13;;;21.50;51.00;;;;;;4975703;28;20038;-85
2022/03/28 13:06:44;;;;;;;43.92;35.45;;;21.70;51.40;;;;;;4986785;28;20034;-85
2022/03/28 13:09:16;;;;;;;44.38;37.90;;;21.90;50.80;;;;;;4965815;28;20041;-82
2022/03/28 13:11:43;;;;;;;50.75;41.05;;;22.10;50.50;;;;;;4962802;28;20097;-81
2022/03/28 13:14:26;;;;;;;47.40;38.55;;;21.90;50.50;;;;;;4990498;28;20034;-82
2022/03/28 13:17:08;;;;;;;47.45;38.35;;;21.80;50.30;;;;;;4972386;28;20038;-82
2022/03/28 13:19:35;;;;;;;53.03;41.22;;;21.40;50.90;;;;;;4993545;28;20109;-81
2022/03/28 13:22:04;;;;;;;50.92;40.60;;;21.20;50.70;;;;;;4960040;28;20495;-82
2022/03/28 13:24:31;;;;;;;55.28;44.28;;;21.10;50.40;;;;;;4977074;28;20034;-81
2022/03/28 13:30:27;;;;;;;52.92;43.15;;;20.40;52.60;;;;;;4983627;28;20045;-82
2022/03/28 13:32:56;;;;;;;55.53;43.72;;;20.20;53.70;;;;;;4986791;28;20125;-82
2022/03/28 13:35:25;;;;;;;57.53;47.03;;;20.20;54.80;;;;;;4990310;28;20070;-81
2022/03/28 13:37:57;;;;;;;65.88;50.33;;;19.90;54.70;;;;;;4974862;28;20034;-81
2022/03/28 13:40:24;;;;;;;56.85;47.25;;;19.80;56.40;;;;;;4992921;28;20109;-81
2022/03/28 13:42:51;;;;;;;57.42;45.58;;;19.60;58.10;;;;;;4990850;28;20038;-81
2022/03/28 13:45:16;;;;;;;53.88;43.72;;;19.40;58.70;;;;;;4988628;28;20034;-82
2022/03/28 13:47:42;;;;;;;56.38;44.30;;;19.30;59.20;;;;;;4965647;28;20046;-81
2022/03/28 13:50:35;;;;;;;63.20;45.70;;;19.20;59.60;;;;;;4988096;28;20069;-81
2022/03/28 13:53:27;;;;;;;58.75;41.13;;;19.10;59.60;;;;;;4979901;28;20085;-81
2022/03/28 13:55:53;;;;;;;61.78;43.95;;;19.10;59.80;;;;;;4992668;28;20475;-81
2022/03/28 13:58:19;;;;;;;59.30;45.28;;;19.00;59.30;;;;;;4972437;28;20065;-81
2022/03/28 14:00:46;;;;;;;60.30;47.38;;;18.90;60.20;;;;;;4967452;28;20413;-82
2022/03/28 14:03:22;;;;;;;59.33;45.17;;;18.80;60.40;;;;;;4974478;28;20045;-81
2022/03/28 14:05:57;;;;;;;56.28;42.78;;;18.80;60.70;;;;;;4974886;28;20459;-82
2022/03/28 14:08:36;;;;;;;56.35;40.78;;;18.70;60.60;;;;;;4989197;28;20526;-81
2022/03/28 14:11:04;;;;;;;46.40;34.70;;;18.60;61.20;;;;;;4985408;28;20030;-81
2022/03/28 14:13:30;;;;;;;44.30;32.03;;;18.50;56.00;;;;;;4975469;28;20053;-81
2022/03/28 14:19:26;;;;;;;46.08;31.98;;;18.40;54.90;;;;;;4993905;28;20085;-82
2022/03/28 14:22:01;;;;;;;46.92;34.78;;;18.30;56.30;;;;;;4996286;28;20042;-82
2022/03/28 14:25:00;;;;;;;42.60;31.02;;;18.30;56.50;;;;;;4989610;28;20545;-81
2022/03/28 14:27:29;;;;;;;42.15;30.77;;;18.30;56.50;;;;;;4989359;28;20129;-81
2022/03/28 14:29:57;;;;;;;47.10;31.60;;;18.40;57.50;;;;;;4995221;28;20049;-81
2022/03/28 14:32:23;;;;;;;42.50;32.25;;;18.40;58.40;;;;;;4996714;28;20137;-81
2022/03/28 14:34:50;;;;;;;49.13;36.83;;;18.30;59.20;;;;;;4996397;28;20031;-81
2022/03/28 14:37:17;;;;;;;40.58;32.67;;;18.20;58.90;;;;;;4996799;28;20038;-81
2022/03/28 14:39:43;;;;;;;47.30;32.88;;;18.10;59.70;;;;;;4979212;28;20457;-81
2022/03/28 14:42:14;;;;;;;49.00;34.28;;;18.00;60.60;;;;;;4978351;28;20110;-81
2022/03/28 14:44:40;;;;;;;50.42;34.13;;;18.10;61.40;;;;;;4966328;28;20043;-82
2022/03/28 14:47:10;;;;;;;49.17;36.50;;;18.00;62.10;;;;;;4960550;28;20391;-81
2022/03/28 14:49:37;;;;;;;40.85;31.83;;;18.00;62.60;;;;;;4975834;28;20039;-85
2022/03/28 14:52:05;;;;;;;41.30;29.90;;;17.90;62.70;;;;;;4979837;28;20483;-85
2022/03/28 14:54:31;;;;;;;38.05;29.35;;;17.90;62.30;;;;;;4996405;28;20041;-85
2022/03/28 14:56:58;;;;;;;35.75;26.77;;;17.80;61.30;;;;;;4978659;28;20038;-84
2022/03/28 14:59:25;;;;;;;32.15;25.90;;;17.80;60.50;;;;;;4988102;28;20463;-85
2022/03/28 15:01:51;;;;;;;35.22;23.48;;;17.70;58.90;;;;;;4986823;28;20035;-85
2022/03/28 15:04:17;;;;;;;30.67;21.13;;;17.70;58.50;;;;;;4995559;28;20479;-89
2022/03/28 15:06:46;;;;;;;29.13;21.15;;;17.70;58.90;;;;;;4997480;28;20042;-85
2022/03/28 15:09:13;;;;;;;28.40;21.25;;;17.80;57.40;;;;;;4979246;28;20557;-85
2022/03/28 15:11:41;;;;;;;25.63;20.60;;;17.80;57.30;;;;;;4993505;28;20040;-85
2022/03/28 15:14:07;;;;;;;29.77;21.65;;;17.70;57.20;;;;;;4996428;28;20146;-84
2022/03/28 15:16:36;;;;;;;26.90;21.15;;;17.70;56.90;;;;;;4979132;28;20045;-85
2022/03/28 15:19:02;;;;;;;25.63;20.70;;;17.70;56.20;;;;;;4996494;28;20122;-85
2022/03/28 15:21:29;;;;;;;26.05;20.65;;;17.60;56.20;;;;;;4996126;28;20128;-84
2022/03/28 15:23:55;;;;;;;27.33;20.25;;;17.60;56.60;;;;;;4996485;28;20073;-85
2022/03/28 15:26:21;;;;;;;29.00;21.58;;;17.60;56.20;;;;;;4996558;28;20058;-84
2022/03/28 15:28:47;;;;;;;31.05;21.52;;;17.60;55.10;;;;;;4995849;28;20054;-85
2022/03/28 15:31:25;;;;;;;28.20;20.40;;;17.60;55.90;;;;;;4996091;28;20097;-84
2022/03/28 15:33:52;;;;;;;34.70;22.83;;;17.60;56.10;;;;;;4996363;28;20427;-84
2022/03/28 15:36:18;;;;;;;34.17;24.35;;;17.60;55.90;;;;;;4993857;28;20117;-85
2022/03/28 15:38:44;;;;;;;32.40;23.58;;;17.60;56.20;;;;;;4981190;28;20078;-82
2022/03/28 15:41:10;;;;;;;33.90;24.38;;;17.60;55.40;;;;;;4961380;28;20078;-81
2022/03/28 15:43:37;;;;;;;33.35;25.20;;;17.60;54.50;;;;;;4984434;28;20034;-81
2022/03/28 15:46:05;;;;;;;35.00;25.95;;;17.50;56.20;;;;;;4976446;28;20116;-81
2022/03/28 15:48:33;;;;;;;40.15;28.45;;;17.50;56.20;;;;;;4976358;28;20035;-80
2022/03/28 15:50:58;;;;;;;38.30;27.33;;;17.50;58.00;;;;;;4970459;28;20129;-80
2022/03/28 15:53:32;;;;;;;40.25;28.52;;;17.50;59.00;;;;;;4964007;28;20122;-80
2022/03/28 15:56:14;;;;;;;38.65;29.02;;;17.40;59.00;;;;;;4989230;28;20050;-79
2022/03/28 15:58:45;;;;;;;41.08;29.67;;;17.40;60.10;;;;;;4971563;28;20426;-79
2022/03/28 16:04:12;;;;;;;38.30;29.52;;;17.40;60.10;;;;;;4988081;28;20066;-79
2022/03/28 16:06:40;;;;;;;43.05;31.33;;;17.30;60.40;;;;;;4993360;28;20074;-79
2022/03/28 16:09:07;;;;;;;44.00;32.78;;;17.30;60.30;;;;;;4974239;28;20038;-79
2022/03/28 16:11:34;;;;;;;39.55;29.65;;;17.30;60.10;;;;;;4989239;28;20065;-80
2022/03/28 16:14:07;;;;;;;40.58;31.73;;;17.20;60.80;;;;;;4975569;28;20125;-80
2022/03/28 16:16:36;;;;;;;40.60;30.63;;;17.20;60.20;;;;;;4983914;28;20046;-82
2022/03/28 16:19:09;;;;;;;40.05;29.83;;;17.20;60.20;;;;;;4967366;28;20026;-81
2022/03/28 16:21:39;;;;;;;34.60;28.70;;;17.20;60.10;;;;;;4990103;28;20045;-81
2022/03/28 16:24:06;;;;;;;;;;;17.20;60.80;;;;;;4974198;28;20050;-80
2022/03/28 16:26:33;;;;;;;40.67;29.75;;;17.10;61.10;;;;;;4996042;28;19909;-88
2022/03/28 16:28:59;;;;;;;39.05;30.02;;;17.00;60.40;;;;;;4994798;28;20113;-87
2022/03/28 16:31:25;;;;;;;41.78;34.50;;;17.10;61.80;;;;;;4968712;28;20451;-88
2022/03/28 16:33:51;;;;;;;46.20;32.45;;;17.00;63.00;;;;;;4997481;28;20038;-87
2022/03/28 16:36:55;;;;;;;42.72;29.23;;;17.00;63.60;;;;;;5003278;28;20038;-88
2022/03/28 16:39:21;;;;;;;38.17;30.27;;;17.00;65.50;;;;;;4957394;29;20035;-87
2022/03/28 16:41:52;;;;;;;34.90;28.63;;;17.00;67.20;;;;;;4949488;29;20044;-87
2022/03/28 16:44:24;;;;;;;38.10;28.17;;;17.00;67.90;;;;;;4946992;29;20035;-88
2022/03/28 16:46:55;;;;;;;31.17;25.83;;;17.00;68.00;;;;;;4934666;29;20047;-88
2022/03/28 16:49:24;;;;;;;31.60;25.80;;;16.90;68.60;;;;;;4948631;29;20039;-87
2022/03/28 16:51:55;;;;;;;28.42;25.15;;;16.90;69.60;;;;;;4947626;29;20066;-86
2022/03/28 16:54:21;;;;;;;29.15;25.63;;;16.80;70.50;;;;;;4954931;29;20528;-87
2022/03/28 16:56:53;;;;;;;31.13;26.10;;;16.90;71.10;;;;;;4954286;29;20439;-87
2022/03/28 16:59:35;;;;;;;28.48;25.38;;;16.70;72.30;;;;;;4938102;29;20602;-86
2022/03/28 17:02:04;;;;;;;31.80;26.23;;;16.70;73.00;;;;;;4953011;29;20036;-87
2022/03/28 17:04:31;;;;;;;34.65;28.30;;;16.50;74.20;;;;;;4953185;29;20039;-88
2022/03/28 17:26:45;;;;;;;29.70;25.08;;;15.80;78.30;;;;;;5148185;23;20071;-88
2022/03/28 17:29:13;;;;;;;31.08;23.88;;;15.80;78.80;;;;;;4956203;29;20075;-87
2022/03/28 17:31:40;;;;;;;27.42;23.38;;;15.70;79.20;;;;;;4939010;29;20109;-88
2022/03/28 17:34:13;;;;;;;31.88;23.30;;;15.70;79.20;;;;;;4954430;28;20038;-87
2022/03/28 17:36:39;;;;;;;25.23;21.23;;;15.70;79.40;;;;;;4950611;28;20036;-88
2022/03/28 17:39:05;;;;;;;23.65;20.63;;;15.60;79.60;;;;;;4954950;28;20106;-88
2022/03/28 17:41:32;;;;;;;26.48;22.90;;;15.60;79.00;;;;;;4956019;28;20039;-88
2022/03/28 17:43:57;;;;;;;25.83;22.13;;;15.50;78.90;;;;;;4957866;28;20066;-88
2022/03/28 17:46:24;;;;;;;26.77;19.98;;;15.40;78.40;;;;;;4939597;28;20073;-80
2022/03/28 17:48:54;;;;;;;27.25;21.00;;;15.40;78.20;;;;;;4954249;28;20043;-80
2022/03/28 17:51:21;;;;;;;30.08;21.58;;;15.40;77.80;;;;;;4957572;28;20086;-79
2022/03/28 17:53:48;;;;;;;28.08;22.10;;;15.50;77.10;;;;;;4939647;29;20066;-79
2022/03/28 17:56:14;;;;;;;28.23;21.88;;;15.40;76.40;;;;;;4951489;28;20027;-81
2022/03/28 17:58:43;;;;;;;23.63;19.13;;;15.40;76.50;;;;;;4951155;29;20054;-79
2022/03/28 18:01:11;;;;;;;25.58;19.50;;;15.40;76.70;;;;;;4950805;29;20052;-79
2022/03/28 18:03:40;;;;;;;28.58;21.83;;;15.40;76.90;;;;;;4933840;29;20107;-80
2022/03/28 18:06:08;;;;;;;27.23;20.55;;;15.40;77.60;;;;;;4953309;29;20082;-80